sensor_id;sensor_type;location;lat;lon;timestamp;P1;durP1;ratioP1;P2;durP2;ratioP2
22336;SDS011;14992;50.844;4.418;2023-03-13T00:01:34;7.65;;;2.97;;
22336;SDS011;14992;50.844;4.418;2023-03-13T00:06:33;15.90;;;3.58;;
22336;SDS011;14992;50.844;4.418;2023-03-13T00:09:04;8.00;;;3.38;;
22336;SDS011;14992;50.844;4.418;2023-03-13T00:11:34;10.88;;;2.75;;
22336;SDS011;14992;50.844;4.418;2023-03-13T00:14:04;8.45;;;3.30;;
22336;SDS011;14992;50.844;4.418;2023-03-13T00:16:35;10.73;;;2.72;;
22336;SDS011;14992;50.844;4.418;2023-03-13T00:19:05;10.77;;;2.78;;
22336;SDS011;14992;50.844;4.418;2023-03-13T00:21:35;8.20;;;2.88;;
22336;SDS011;14992;50.844;4.418;2023-03-13T00:24:08;9.40;;;3.08;;
22336;SDS011;14992;50.844;4.418;2023-03-13T00:26:38;13.90;;;2.88;;
22336;SDS011;14992;50.844;4.418;2023-03-13T00:29:07;6.78;;;2.38;;
22336;SDS011;14992;50.844;4.418;2023-03-13T00:31:37;12.13;;;3.53;;
22336;SDS011;14992;50.844;4.418;2023-03-13T00:34:08;6.50;;;2.75;;
22336;SDS011;14992;50.844;4.418;2023-03-13T00:36:37;10.50;;;3.13;;
22336;SDS011;14992;50.844;4.418;2023-03-13T00:39:06;8.73;;;3.17;;
22336;SDS011;14992;50.844;4.418;2023-03-13T00:41:35;6.78;;;3.00;;
22336;SDS011;14992;50.844;4.418;2023-03-13T00:44:04;8.07;;;2.33;;
22336;SDS011;14992;50.844;4.418;2023-03-13T00:46:34;9.18;;;2.45;;
22336;SDS011;14992;50.844;4.418;2023-03-13T00:49:05;6.90;;;2.20;;
22336;SDS011;14992;50.844;4.418;2023-03-13T00:51:34;6.55;;;2.78;;
22336;SDS011;14992;50.844;4.418;2023-03-13T00:54:03;6.03;;;2.03;;
22336;SDS011;14992;50.844;4.418;2023-03-13T00:56:33;5.10;;;2.00;;
22336;SDS011;14992;50.844;4.418;2023-03-13T00:59:03;3.60;;;2.33;;
22336;SDS011;14992;50.844;4.418;2023-03-13T01:01:32;5.45;;;2.75;;
22336;SDS011;14992;50.844;4.418;2023-03-13T01:04:03;5.82;;;2.47;;
22336;SDS011;14992;50.844;4.418;2023-03-13T01:06:36;5.78;;;2.85;;
22336;SDS011;14992;50.844;4.418;2023-03-13T01:09:09;6.00;;;3.35;;
22336;SDS011;14992;50.844;4.418;2023-03-13T01:11:41;5.78;;;2.75;;
22336;SDS011;14992;50.844;4.418;2023-03-13T01:14:13;6.63;;;3.88;;
22336;SDS011;14992;50.844;4.418;2023-03-13T01:16:46;7.38;;;3.88;;
22336;SDS011;14992;50.844;4.418;2023-03-13T01:19:16;5.15;;;3.53;;
22336;SDS011;14992;50.844;4.418;2023-03-13T01:21:45;6.00;;;4.63;;
22336;SDS011;14992;50.844;4.418;2023-03-13T01:24:13;11.73;;;5.10;;
22336;SDS011;14992;50.844;4.418;2023-03-13T01:26:42;8.85;;;4.80;;
22336;SDS011;14992;50.844;4.418;2023-03-13T01:29:11;7.72;;;4.75;;
22336;SDS011;14992;50.844;4.418;2023-03-13T01:31:40;9.63;;;5.50;;
22336;SDS011;14992;50.844;4.418;2023-03-13T01:34:09;10.20;;;5.80;;
22336;SDS011;14992;50.844;4.418;2023-03-13T01:36:39;8.65;;;5.30;;
22336;SDS011;14992;50.844;4.418;2023-03-13T01:39:10;8.55;;;5.28;;
22336;SDS011;14992;50.844;4.418;2023-03-13T01:41:39;8.48;;;5.72;;
22336;SDS011;14992;50.844;4.418;2023-03-13T01:44:11;11.45;;;5.65;;
22336;SDS011;14992;50.844;4.418;2023-03-13T01:46:48;11.73;;;6.25;;
22336;SDS011;14992;50.844;4.418;2023-03-13T01:49:20;9.13;;;6.28;;
22336;SDS011;14992;50.844;4.418;2023-03-13T01:52:08;11.43;;;6.03;;
22336;SDS011;14992;50.844;4.418;2023-03-13T01:54:47;8.10;;;5.13;;
22336;SDS011;14992;50.844;4.418;2023-03-13T01:57:22;9.50;;;5.18;;
22336;SDS011;14992;50.844;4.418;2023-03-13T01:59:55;9.98;;;5.40;;
22336;SDS011;14992;50.844;4.418;2023-03-13T02:02:27;12.40;;;5.68;;
22336;SDS011;14992;50.844;4.418;2023-03-13T02:04:58;6.78;;;5.55;;
22336;SDS011;14992;50.844;4.418;2023-03-13T02:07:32;10.75;;;5.28;;
22336;SDS011;14992;50.844;4.418;2023-03-13T02:10:06;9.98;;;5.40;;
22336;SDS011;14992;50.844;4.418;2023-03-13T02:12:37;8.73;;;5.35;;
22336;SDS011;14992;50.844;4.418;2023-03-13T02:15:08;8.73;;;5.10;;
22336;SDS011;14992;50.844;4.418;2023-03-13T02:17:40;8.95;;;5.70;;
22336;SDS011;14992;50.844;4.418;2023-03-13T02:20:11;7.43;;;5.25;;
22336;SDS011;14992;50.844;4.418;2023-03-13T02:22:43;9.70;;;4.90;;
22336;SDS011;14992;50.844;4.418;2023-03-13T02:25:27;8.35;;;4.97;;
22336;SDS011;14992;50.844;4.418;2023-03-13T02:28:05;9.07;;;5.50;;
22336;SDS011;14992;50.844;4.418;2023-03-13T02:30:40;8.95;;;5.03;;
22336;SDS011;14992;50.844;4.418;2023-03-13T02:33:10;6.38;;;4.68;;
22336;SDS011;14992;50.844;4.418;2023-03-13T02:35:40;6.57;;;4.78;;
22336;SDS011;14992;50.844;4.418;2023-03-13T02:38:13;7.68;;;5.10;;
22336;SDS011;14992;50.844;4.418;2023-03-13T02:40:47;7.68;;;5.15;;
22336;SDS011;14992;50.844;4.418;2023-03-13T02:43:19;6.53;;;4.90;;
22336;SDS011;14992;50.844;4.418;2023-03-13T02:46:00;8.63;;;3.92;;
22336;SDS011;14992;50.844;4.418;2023-03-13T02:48:40;7.00;;;4.53;;
22336;SDS011;14992;50.844;4.418;2023-03-13T02:51:13;5.47;;;3.97;;
22336;SDS011;14992;50.844;4.418;2023-03-13T02:53:46;5.07;;;4.00;;
22336;SDS011;14992;50.844;4.418;2023-03-13T02:56:19;5.18;;;3.80;;
22336;SDS011;14992;50.844;4.418;2023-03-13T02:58:50;6.63;;;3.50;;
22336;SDS011;14992;50.844;4.418;2023-03-13T03:03:50;6.05;;;3.97;;
22336;SDS011;14992;50.844;4.418;2023-03-13T03:06:19;5.03;;;3.33;;
22336;SDS011;14992;50.844;4.418;2023-03-13T03:08:49;7.75;;;4.10;;
22336;SDS011;14992;50.844;4.418;2023-03-13T03:11:19;4.18;;;2.65;;
22336;SDS011;14992;50.844;4.418;2023-03-13T03:13:54;5.30;;;3.00;;
22336;SDS011;14992;50.844;4.418;2023-03-13T03:16:24;6.68;;;2.97;;
22336;SDS011;14992;50.844;4.418;2023-03-13T03:18:53;5.40;;;3.53;;
22336;SDS011;14992;50.844;4.418;2023-03-13T03:21:22;8.00;;;3.95;;
22336;SDS011;14992;50.844;4.418;2023-03-13T03:23:51;4.68;;;2.90;;
22336;SDS011;14992;50.844;4.418;2023-03-13T03:26:21;3.28;;;2.95;;
22336;SDS011;14992;50.844;4.418;2023-03-13T03:28:51;4.57;;;2.63;;
22336;SDS011;14992;50.844;4.418;2023-03-13T03:31:20;4.30;;;2.95;;
22336;SDS011;14992;50.844;4.418;2023-03-13T03:33:49;4.95;;;2.35;;
22336;SDS011;14992;50.844;4.418;2023-03-13T03:36:20;6.53;;;2.55;;
22336;SDS011;14992;50.844;4.418;2023-03-13T03:38:50;4.20;;;2.60;;
22336;SDS011;14992;50.844;4.418;2023-03-13T03:41:24;6.07;;;2.90;;
22336;SDS011;14992;50.844;4.418;2023-03-13T03:43:54;6.50;;;3.05;;
22336;SDS011;14992;50.844;4.418;2023-03-13T03:46:28;4.18;;;2.22;;
22336;SDS011;14992;50.844;4.418;2023-03-13T03:48:57;3.58;;;2.28;;
22336;SDS011;14992;50.844;4.418;2023-03-13T03:51:25;8.60;;;2.53;;
22336;SDS011;14992;50.844;4.418;2023-03-13T03:53:54;2.92;;;2.00;;
22336;SDS011;14992;50.844;4.418;2023-03-13T03:56:25;4.13;;;2.63;;
22336;SDS011;14992;50.844;4.418;2023-03-13T03:58:56;5.07;;;2.40;;
22336;SDS011;14992;50.844;4.418;2023-03-13T04:01:46;5.18;;;2.60;;
22336;SDS011;14992;50.844;4.418;2023-03-13T04:04:19;4.32;;;2.28;;
22336;SDS011;14992;50.844;4.418;2023-03-13T04:06:54;4.18;;;2.17;;
22336;SDS011;14992;50.844;4.418;2023-03-13T04:09:24;2.97;;;2.17;;
22336;SDS011;14992;50.844;4.418;2023-03-13T04:14:29;5.00;;;2.13;;
22336;SDS011;14992;50.844;4.418;2023-03-13T04:16:59;4.15;;;2.22;;
22336;SDS011;14992;50.844;4.418;2023-03-13T04:19:28;3.58;;;2.35;;
22336;SDS011;14992;50.844;4.418;2023-03-13T04:21:57;5.35;;;2.13;;
22336;SDS011;14992;50.844;4.418;2023-03-13T04:24:26;3.40;;;2.15;;
22336;SDS011;14992;50.844;4.418;2023-03-13T04:26:56;3.28;;;2.45;;
22336;SDS011;14992;50.844;4.418;2023-03-13T04:29:27;3.88;;;3.15;;
22336;SDS011;14992;50.844;4.418;2023-03-13T04:32:04;5.80;;;2.00;;
22336;SDS011;14992;50.844;4.418;2023-03-13T04:34:59;5.10;;;2.35;;
22336;SDS011;14992;50.844;4.418;2023-03-13T04:37:28;5.20;;;2.40;;
22336;SDS011;14992;50.844;4.418;2023-03-13T04:40:17;5.07;;;2.00;;
22336;SDS011;14992;50.844;4.418;2023-03-13T04:43:00;5.03;;;2.38;;
22336;SDS011;14992;50.844;4.418;2023-03-13T04:45:33;4.80;;;2.45;;
22336;SDS011;14992;50.844;4.418;2023-03-13T04:48:22;6.03;;;2.33;;
22336;SDS011;14992;50.844;4.418;2023-03-13T04:51:10;5.10;;;2.15;;
22336;SDS011;14992;50.844;4.418;2023-03-13T04:53:59;3.40;;;2.00;;
22336;SDS011;14992;50.844;4.418;2023-03-13T04:56:47;2.83;;;1.80;;
22336;SDS011;14992;50.844;4.418;2023-03-13T04:59:27;4.72;;;2.45;;
22336;SDS011;14992;50.844;4.418;2023-03-13T05:01:57;7.40;;;2.38;;
22336;SDS011;14992;50.844;4.418;2023-03-13T05:04:59;4.72;;;2.20;;
22336;SDS011;14992;50.844;4.418;2023-03-13T05:07:46;4.70;;;2.10;;
22336;SDS011;14992;50.844;4.418;2023-03-13T05:10:34;11.27;;;2.40;;
22336;SDS011;14992;50.844;4.418;2023-03-13T05:13:21;4.38;;;2.08;;
22336;SDS011;14992;50.844;4.418;2023-03-13T05:15:56;4.20;;;2.47;;
22336;SDS011;14992;50.844;4.418;2023-03-13T05:21:43;4.45;;;1.98;;
22336;SDS011;14992;50.844;4.418;2023-03-13T05:24:30;4.05;;;1.95;;
22336;SDS011;14992;50.844;4.418;2023-03-13T05:27:18;7.65;;;2.42;;
22336;SDS011;14992;50.844;4.418;2023-03-13T05:30:08;6.20;;;2.20;;
22336;SDS011;14992;50.844;4.418;2023-03-13T05:33:16;4.25;;;1.95;;
22336;SDS011;14992;50.844;4.418;2023-03-13T05:35:57;6.43;;;2.85;;
22336;SDS011;14992;50.844;4.418;2023-03-13T05:38:36;6.35;;;2.42;;
22336;SDS011;14992;50.844;4.418;2023-03-13T05:41:23;8.90;;;3.05;;
22336;SDS011;14992;50.844;4.418;2023-03-13T05:43:58;6.63;;;3.58;;
22336;SDS011;14992;50.844;4.418;2023-03-13T05:46:59;7.10;;;2.63;;
22336;SDS011;14992;50.844;4.418;2023-03-13T05:49:38;4.65;;;3.10;;
22336;SDS011;14992;50.844;4.418;2023-03-13T05:52:28;5.80;;;2.67;;
22336;SDS011;14992;50.844;4.418;2023-03-13T05:55:06;7.25;;;2.80;;
22336;SDS011;14992;50.844;4.418;2023-03-13T05:57:58;8.05;;;2.40;;
22336;SDS011;14992;50.844;4.418;2023-03-13T06:00:53;9.85;;;3.15;;
22336;SDS011;14992;50.844;4.418;2023-03-13T06:03:44;6.25;;;2.38;;
22336;SDS011;14992;50.844;4.418;2023-03-13T06:06:16;3.30;;;2.03;;
22336;SDS011;14992;50.844;4.418;2023-03-13T06:08:52;5.28;;;2.20;;
22336;SDS011;14992;50.844;4.418;2023-03-13T06:11:23;6.50;;;2.53;;
22336;SDS011;14992;50.844;4.418;2023-03-13T06:13:53;11.05;;;2.45;;
22336;SDS011;14992;50.844;4.418;2023-03-13T06:16:35;5.20;;;2.45;;
22336;SDS011;14992;50.844;4.418;2023-03-13T06:19:13;4.65;;;2.45;;
22336;SDS011;14992;50.844;4.418;2023-03-13T06:21:43;7.50;;;2.33;;
22336;SDS011;14992;50.844;4.418;2023-03-13T06:24:13;6.28;;;2.63;;
22336;SDS011;14992;50.844;4.418;2023-03-13T06:26:42;9.25;;;2.35;;
22336;SDS011;14992;50.844;4.418;2023-03-13T06:29:11;8.70;;;2.75;;
22336;SDS011;14992;50.844;4.418;2023-03-13T06:31:40;8.55;;;2.70;;
22336;SDS011;14992;50.844;4.418;2023-03-13T06:34:09;4.55;;;2.50;;
22336;SDS011;14992;50.844;4.418;2023-03-13T06:36:39;4.53;;;2.40;;
22336;SDS011;14992;50.844;4.418;2023-03-13T06:39:08;6.95;;;2.70;;
22336;SDS011;14992;50.844;4.418;2023-03-13T06:41:38;7.25;;;3.08;;
22336;SDS011;14992;50.844;4.418;2023-03-13T06:44:07;5.88;;;2.63;;
22336;SDS011;14992;50.844;4.418;2023-03-13T06:46:36;6.78;;;3.05;;
22336;SDS011;14992;50.844;4.418;2023-03-13T06:49:05;7.55;;;2.53;;
22336;SDS011;14992;50.844;4.418;2023-03-13T06:51:34;6.80;;;2.83;;
22336;SDS011;14992;50.844;4.418;2023-03-13T06:54:03;10.07;;;2.45;;
22336;SDS011;14992;50.844;4.418;2023-03-13T06:56:31;5.88;;;2.58;;
22336;SDS011;14992;50.844;4.418;2023-03-13T06:59:01;7.10;;;2.35;;
22336;SDS011;14992;50.844;4.418;2023-03-13T07:01:30;5.32;;;2.38;;
22336;SDS011;14992;50.844;4.418;2023-03-13T07:03:59;7.28;;;2.15;;
22336;SDS011;14992;50.844;4.418;2023-03-13T07:06:28;4.28;;;2.28;;
22336;SDS011;14992;50.844;4.418;2023-03-13T07:08:57;11.85;;;2.67;;
22336;SDS011;14992;50.844;4.418;2023-03-13T07:11:26;4.72;;;2.08;;
22336;SDS011;14992;50.844;4.418;2023-03-13T07:13:55;7.35;;;2.72;;
22336;SDS011;14992;50.844;4.418;2023-03-13T07:16:43;4.32;;;1.98;;
22336;SDS011;14992;50.844;4.418;2023-03-13T07:19:12;5.97;;;2.38;;
22336;SDS011;14992;50.844;4.418;2023-03-13T07:21:42;5.78;;;2.25;;
22336;SDS011;14992;50.844;4.418;2023-03-13T07:24:12;12.68;;;2.50;;
22336;SDS011;14992;50.844;4.418;2023-03-13T07:26:41;6.32;;;2.75;;
22336;SDS011;14992;50.844;4.418;2023-03-13T07:29:29;3.90;;;2.67;;
22336;SDS011;14992;50.844;4.418;2023-03-13T07:32:00;3.97;;;2.10;;
22336;SDS011;14992;50.844;4.418;2023-03-13T07:34:29;9.13;;;2.60;;
22336;SDS011;14992;50.844;4.418;2023-03-13T07:36:57;6.30;;;2.63;;
22336;SDS011;14992;50.844;4.418;2023-03-13T07:39:26;6.72;;;2.22;;
22336;SDS011;14992;50.844;4.418;2023-03-13T07:41:55;8.23;;;2.30;;
22336;SDS011;14992;50.844;4.418;2023-03-13T07:44:24;6.43;;;3.28;;
22336;SDS011;14992;50.844;4.418;2023-03-13T07:46:53;9.88;;;2.53;;
22336;SDS011;14992;50.844;4.418;2023-03-13T07:49:23;4.78;;;2.10;;
22336;SDS011;14992;50.844;4.418;2023-03-13T07:51:52;8.52;;;2.70;;
22336;SDS011;14992;50.844;4.418;2023-03-13T07:54:21;4.05;;;2.15;;
22336;SDS011;14992;50.844;4.418;2023-03-13T07:56:50;5.50;;;2.88;;
22336;SDS011;14992;50.844;4.418;2023-03-13T07:59:19;6.40;;;2.20;;
22336;SDS011;14992;50.844;4.418;2023-03-13T08:01:48;9.50;;;2.60;;
22336;SDS011;14992;50.844;4.418;2023-03-13T08:04:17;9.55;;;2.83;;
22336;SDS011;14992;50.844;4.418;2023-03-13T08:06:47;4.22;;;2.42;;
22336;SDS011;14992;50.844;4.418;2023-03-13T08:09:17;3.88;;;2.13;;
22336;SDS011;14992;50.844;4.418;2023-03-13T08:11:46;5.30;;;2.30;;
22336;SDS011;14992;50.844;4.418;2023-03-13T08:14:15;7.00;;;3.17;;
22336;SDS011;14992;50.844;4.418;2023-03-13T08:16:44;7.78;;;2.45;;
22336;SDS011;14992;50.844;4.418;2023-03-13T08:19:12;4.45;;;2.47;;
22336;SDS011;14992;50.844;4.418;2023-03-13T08:21:41;5.88;;;3.28;;
22336;SDS011;14992;50.844;4.418;2023-03-13T08:24:11;6.75;;;2.90;;
22336;SDS011;14992;50.844;4.418;2023-03-13T08:26:41;5.32;;;2.35;;
22336;SDS011;14992;50.844;4.418;2023-03-13T08:29:10;4.90;;;2.08;;
22336;SDS011;14992;50.844;4.418;2023-03-13T08:31:42;4.88;;;2.38;;
22336;SDS011;14992;50.844;4.418;2023-03-13T08:34:13;5.78;;;2.65;;
22336;SDS011;14992;50.844;4.418;2023-03-13T08:36:43;7.05;;;2.10;;
22336;SDS011;14992;50.844;4.418;2023-03-13T08:39:14;5.88;;;2.47;;
22336;SDS011;14992;50.844;4.418;2023-03-13T08:41:44;3.72;;;1.90;;
22336;SDS011;14992;50.844;4.418;2023-03-13T08:44:14;3.78;;;2.10;;
22336;SDS011;14992;50.844;4.418;2023-03-13T08:46:44;5.55;;;2.20;;
22336;SDS011;14992;50.844;4.418;2023-03-13T08:49:15;4.38;;;2.42;;
22336;SDS011;14992;50.844;4.418;2023-03-13T08:51:44;4.57;;;2.03;;
22336;SDS011;14992;50.844;4.418;2023-03-13T08:54:15;5.00;;;2.08;;
22336;SDS011;14992;50.844;4.418;2023-03-13T08:56:58;4.78;;;2.20;;
22336;SDS011;14992;50.844;4.418;2023-03-13T08:59:27;4.32;;;2.33;;
22336;SDS011;14992;50.844;4.418;2023-03-13T09:01:56;2.80;;;2.00;;
22336;SDS011;14992;50.844;4.418;2023-03-13T09:04:25;3.25;;;1.88;;
22336;SDS011;14992;50.844;4.418;2023-03-13T09:06:54;3.78;;;1.80;;
22336;SDS011;14992;50.844;4.418;2023-03-13T09:09:24;4.43;;;1.98;;
22336;SDS011;14992;50.844;4.418;2023-03-13T09:11:53;3.53;;;1.75;;
22336;SDS011;14992;50.844;4.418;2023-03-13T09:14:22;3.80;;;1.92;;
22336;SDS011;14992;50.844;4.418;2023-03-13T09:16:51;4.10;;;2.13;;
22336;SDS011;14992;50.844;4.418;2023-03-13T09:19:20;2.80;;;1.60;;
22336;SDS011;14992;50.844;4.418;2023-03-13T09:21:49;3.85;;;2.08;;
22336;SDS011;14992;50.844;4.418;2023-03-13T09:24:18;6.65;;;1.95;;
22336;SDS011;14992;50.844;4.418;2023-03-13T09:26:48;3.22;;;1.85;;
22336;SDS011;14992;50.844;4.418;2023-03-13T09:29:27;2.38;;;1.90;;
22336;SDS011;14992;50.844;4.418;2023-03-13T09:31:56;3.60;;;1.60;;
22336;SDS011;14992;50.844;4.418;2023-03-13T09:34:25;5.38;;;1.77;;
22336;SDS011;14992;50.844;4.418;2023-03-13T09:36:54;3.50;;;1.58;;
22336;SDS011;14992;50.844;4.418;2023-03-13T09:39:23;8.50;;;2.20;;
22336;SDS011;14992;50.844;4.418;2023-03-13T09:41:53;4.85;;;1.73;;
22336;SDS011;14992;50.844;4.418;2023-03-13T09:44:33;3.03;;;1.55;;
22336;SDS011;14992;50.844;4.418;2023-03-13T09:47:08;3.05;;;1.63;;
22336;SDS011;14992;50.844;4.418;2023-03-13T09:49:44;3.03;;;1.33;;
22336;SDS011;14992;50.844;4.418;2023-03-13T09:52:17;2.40;;;1.63;;
22336;SDS011;14992;50.844;4.418;2023-03-13T09:54:50;1.65;;;1.50;;
22336;SDS011;14992;50.844;4.418;2023-03-13T09:57:25;1.83;;;1.60;;
22336;SDS011;14992;50.844;4.418;2023-03-13T10:00:01;1.60;;;1.48;;
22336;SDS011;14992;50.844;4.418;2023-03-13T10:02:38;4.25;;;1.50;;
22336;SDS011;14992;50.844;4.418;2023-03-13T10:05:12;1.92;;;1.70;;
22336;SDS011;14992;50.844;4.418;2023-03-13T10:07:44;4.35;;;2.67;;
22336;SDS011;14992;50.844;4.418;2023-03-13T10:12:46;3.25;;;1.65;;
22336;SDS011;14992;50.844;4.418;2023-03-13T10:18:10;2.47;;;1.60;;
22336;SDS011;14992;50.844;4.418;2023-03-13T10:20:46;2.20;;;1.02;;
22336;SDS011;14992;50.844;4.418;2023-03-13T10:23:21;3.58;;;1.38;;
22336;SDS011;14992;50.844;4.418;2023-03-13T10:25:54;1.88;;;1.65;;
22336;SDS011;14992;50.844;4.418;2023-03-13T10:28:25;2.00;;;1.35;;
22336;SDS011;14992;50.844;4.418;2023-03-13T10:30:56;4.13;;;1.38;;
22336;SDS011;14992;50.844;4.418;2023-03-13T10:33:29;2.58;;;1.02;;
22336;SDS011;14992;50.844;4.418;2023-03-13T10:36:05;2.45;;;1.40;;
22336;SDS011;14992;50.844;4.418;2023-03-13T10:38:44;3.92;;;1.55;;
22336;SDS011;14992;50.844;4.418;2023-03-13T10:41:19;2.75;;;1.42;;
22336;SDS011;14992;50.844;4.418;2023-03-13T10:43:57;3.17;;;1.55;;
22336;SDS011;14992;50.844;4.418;2023-03-13T10:46:28;3.58;;;1.50;;
22336;SDS011;14992;50.844;4.418;2023-03-13T10:48:59;4.50;;;1.38;;
22336;SDS011;14992;50.844;4.418;2023-03-13T10:51:34;3.85;;;1.60;;
22336;SDS011;14992;50.844;4.418;2023-03-13T10:54:14;4.03;;;2.15;;
22336;SDS011;14992;50.844;4.418;2023-03-13T10:56:48;2.88;;;1.55;;
22336;SDS011;14992;50.844;4.418;2023-03-13T10:59:20;2.08;;;1.17;;
22336;SDS011;14992;50.844;4.418;2023-03-13T11:01:51;5.88;;;1.75;;
22336;SDS011;14992;50.844;4.418;2023-03-13T11:04:29;4.82;;;1.30;;
22336;SDS011;14992;50.844;4.418;2023-03-13T11:07:00;2.70;;;1.15;;
22336;SDS011;14992;50.844;4.418;2023-03-13T11:09:30;2.53;;;1.20;;
22336;SDS011;14992;50.844;4.418;2023-03-13T11:12:03;2.85;;;1.50;;
22336;SDS011;14992;50.844;4.418;2023-03-13T11:14:35;2.65;;;1.30;;
22336;SDS011;14992;50.844;4.418;2023-03-13T11:17:07;2.72;;;1.33;;
22336;SDS011;14992;50.844;4.418;2023-03-13T11:19:47;2.92;;;1.23;;
22336;SDS011;14992;50.844;4.418;2023-03-13T11:22:27;3.35;;;1.13;;
22336;SDS011;14992;50.844;4.418;2023-03-13T11:25:02;3.65;;;1.10;;
22336;SDS011;14992;50.844;4.418;2023-03-13T11:27:41;3.35;;;1.20;;
22336;SDS011;14992;50.844;4.418;2023-03-13T11:30:19;2.92;;;1.25;;
22336;SDS011;14992;50.844;4.418;2023-03-13T11:33:01;2.85;;;1.83;;
22336;SDS011;14992;50.844;4.418;2023-03-13T11:35:35;2.90;;;1.25;;
22336;SDS011;14992;50.844;4.418;2023-03-13T11:38:07;1.60;;;1.00;;
22336;SDS011;14992;50.844;4.418;2023-03-13T11:40:47;4.13;;;0.98;;
22336;SDS011;14992;50.844;4.418;2023-03-13T11:43:31;3.20;;;1.02;;
22336;SDS011;14992;50.844;4.418;2023-03-13T11:46:16;4.05;;;1.10;;
22336;SDS011;14992;50.844;4.418;2023-03-13T11:49:04;2.25;;;1.10;;
22336;SDS011;14992;50.844;4.418;2023-03-13T11:52:00;1.98;;;0.85;;
22336;SDS011;14992;50.844;4.418;2023-03-13T11:57:26;2.70;;;1.10;;
22336;SDS011;14992;50.844;4.418;2023-03-13T12:00:05;2.80;;;1.00;;
22336;SDS011;14992;50.844;4.418;2023-03-13T12:02:52;2.45;;;1.10;;
22336;SDS011;14992;50.844;4.418;2023-03-13T12:05:25;2.28;;;1.35;;
22336;SDS011;14992;50.844;4.418;2023-03-13T12:07:58;1.83;;;1.27;;
22336;SDS011;14992;50.844;4.418;2023-03-13T12:10:32;4.88;;;1.00;;
22336;SDS011;14992;50.844;4.418;2023-03-13T12:13:06;3.45;;;1.20;;
22336;SDS011;14992;50.844;4.418;2023-03-13T12:15:41;1.90;;;1.10;;
22336;SDS011;14992;50.844;4.418;2023-03-13T12:18:16;2.38;;;1.08;;
22336;SDS011;14992;50.844;4.418;2023-03-13T12:20:48;1.85;;;0.90;;
22336;SDS011;14992;50.844;4.418;2023-03-13T12:23:23;4.20;;;1.10;;
22336;SDS011;14992;50.844;4.418;2023-03-13T12:26:01;1.73;;;1.10;;
22336;SDS011;14992;50.844;4.418;2023-03-13T12:28:34;3.95;;;1.08;;
22336;SDS011;14992;50.844;4.418;2023-03-13T12:31:13;2.80;;;1.48;;
22336;SDS011;14992;50.844;4.418;2023-03-13T12:33:52;2.03;;;1.00;;
22336;SDS011;14992;50.844;4.418;2023-03-13T12:36:27;0.73;;;0.73;;
22336;SDS011;14992;50.844;4.418;2023-03-13T12:39:01;4.18;;;1.15;;
22336;SDS011;14992;50.844;4.418;2023-03-13T12:41:42;2.70;;;1.20;;
22336;SDS011;14992;50.844;4.418;2023-03-13T12:44:16;2.05;;;1.10;;
22336;SDS011;14992;50.844;4.418;2023-03-13T12:46:46;5.43;;;1.30;;
22336;SDS011;14992;50.844;4.418;2023-03-13T12:49:34;1.77;;;0.85;;
22336;SDS011;14992;50.844;4.418;2023-03-13T12:52:30;4.35;;;0.80;;
22336;SDS011;14992;50.844;4.418;2023-03-13T12:55:36;2.38;;;0.90;;
22336;SDS011;14992;50.844;4.418;2023-03-13T12:58:36;2.63;;;0.80;;
22336;SDS011;14992;50.844;4.418;2023-03-13T13:01:13;1.73;;;0.77;;
22336;SDS011;14992;50.844;4.418;2023-03-13T13:03:51;2.55;;;1.25;;
22336;SDS011;14992;50.844;4.418;2023-03-13T13:06:24;3.13;;;0.90;;
22336;SDS011;14992;50.844;4.418;2023-03-13T13:09:05;3.05;;;1.20;;
22336;SDS011;14992;50.844;4.418;2023-03-13T13:11:46;2.10;;;1.00;;
22336;SDS011;14992;50.844;4.418;2023-03-13T13:17:19;2.55;;;1.00;;
22336;SDS011;14992;50.844;4.418;2023-03-13T13:19:54;5.10;;;0.98;;
22336;SDS011;14992;50.844;4.418;2023-03-13T13:22:47;3.28;;;1.27;;
22336;SDS011;14992;50.844;4.418;2023-03-13T13:25:26;2.38;;;0.90;;
22336;SDS011;14992;50.844;4.418;2023-03-13T13:28:11;5.63;;;1.20;;
22336;SDS011;14992;50.844;4.418;2023-03-13T13:30:54;2.35;;;1.13;;
22336;SDS011;14992;50.844;4.418;2023-03-13T13:33:37;4.93;;;1.30;;
22336;SDS011;14992;50.844;4.418;2023-03-13T13:38:59;3.80;;;1.10;;
22336;SDS011;14992;50.844;4.418;2023-03-13T13:41:36;4.65;;;1.42;;
22336;SDS011;14992;50.844;4.418;2023-03-13T13:44:21;3.78;;;1.02;;
22336;SDS011;14992;50.844;4.418;2023-03-13T13:46:52;3.33;;;0.90;;
22336;SDS011;14992;50.844;4.418;2023-03-13T13:49:27;4.10;;;1.00;;
22336;SDS011;14992;50.844;4.418;2023-03-13T13:58:11;2.70;;;0.90;;
22336;SDS011;14992;50.844;4.418;2023-03-13T14:00:45;3.10;;;0.73;;
22336;SDS011;14992;50.844;4.418;2023-03-13T14:03:21;3.08;;;0.77;;
22336;SDS011;14992;50.844;4.418;2023-03-13T14:05:52;3.17;;;1.00;;
22336;SDS011;14992;50.844;4.418;2023-03-13T14:08:24;6.55;;;1.67;;
22336;SDS011;14992;50.844;4.418;2023-03-13T14:11:06;5.45;;;1.30;;
22336;SDS011;14992;50.844;4.418;2023-03-13T14:16:38;5.03;;;1.40;;
22336;SDS011;14992;50.844;4.418;2023-03-13T14:19:22;2.88;;;1.08;;
22336;SDS011;14992;50.844;4.418;2023-03-13T14:21:56;3.60;;;0.98;;
22336;SDS011;14992;50.844;4.418;2023-03-13T14:24:29;5.43;;;1.20;;
22336;SDS011;14992;50.844;4.418;2023-03-13T14:26:59;4.35;;;1.10;;
22336;SDS011;14992;50.844;4.418;2023-03-13T14:29:29;4.88;;;1.20;;
22336;SDS011;14992;50.844;4.418;2023-03-13T14:31:58;5.07;;;1.20;;
22336;SDS011;14992;50.844;4.418;2023-03-13T14:34:27;4.57;;;1.27;;
22336;SDS011;14992;50.844;4.418;2023-03-13T14:36:59;4.10;;;1.48;;
22336;SDS011;14992;50.844;4.418;2023-03-13T14:39:44;3.25;;;1.35;;
22336;SDS011;14992;50.844;4.418;2023-03-13T14:42:17;3.38;;;1.55;;
22336;SDS011;14992;50.844;4.418;2023-03-13T14:44:46;4.68;;;1.20;;
22336;SDS011;14992;50.844;4.418;2023-03-13T14:47:20;4.78;;;1.02;;
22336;SDS011;14992;50.844;4.418;2023-03-13T14:49:54;2.13;;;0.95;;
22336;SDS011;14992;50.844;4.418;2023-03-13T14:52:26;4.25;;;1.20;;
22336;SDS011;14992;50.844;4.418;2023-03-13T14:54:57;2.80;;;1.10;;
22336;SDS011;14992;50.844;4.418;2023-03-13T14:57:31;4.75;;;1.40;;
22336;SDS011;14992;50.844;4.418;2023-03-13T15:00:20;4.80;;;1.20;;
22336;SDS011;14992;50.844;4.418;2023-03-13T15:06:01;4.68;;;1.10;;
22336;SDS011;14992;50.844;4.418;2023-03-13T15:08:33;5.60;;;1.42;;
22336;SDS011;14992;50.844;4.418;2023-03-13T15:11:15;4.72;;;1.10;;
22336;SDS011;14992;50.844;4.418;2023-03-13T15:13:47;5.72;;;1.08;;
22336;SDS011;14992;50.844;4.418;2023-03-13T15:16:17;4.13;;;1.25;;
22336;SDS011;14992;50.844;4.418;2023-03-13T15:18:47;4.25;;;1.67;;
22336;SDS011;14992;50.844;4.418;2023-03-13T15:21:26;4.45;;;1.67;;
22336;SDS011;14992;50.844;4.418;2023-03-13T15:23:58;4.45;;;1.13;;
22336;SDS011;14992;50.844;4.418;2023-03-13T15:26:28;4.43;;;1.55;;
22336;SDS011;14992;50.844;4.418;2023-03-13T15:28:59;3.83;;;1.42;;
22336;SDS011;14992;50.844;4.418;2023-03-13T15:31:27;6.53;;;1.23;;
22336;SDS011;14992;50.844;4.418;2023-03-13T15:33:57;3.72;;;1.90;;
22336;SDS011;14992;50.844;4.418;2023-03-13T15:36:28;3.22;;;1.38;;
22336;SDS011;14992;50.844;4.418;2023-03-13T15:38:58;5.18;;;1.40;;
22336;SDS011;14992;50.844;4.418;2023-03-13T15:41:27;4.97;;;1.25;;
22336;SDS011;14992;50.844;4.418;2023-03-13T15:43:56;4.47;;;1.27;;
22336;SDS011;14992;50.844;4.418;2023-03-13T15:46:27;8.38;;;1.50;;
22336;SDS011;14992;50.844;4.418;2023-03-13T15:48:56;4.30;;;1.30;;
22336;SDS011;14992;50.844;4.418;2023-03-13T15:51:25;3.63;;;1.02;;
22336;SDS011;14992;50.844;4.418;2023-03-13T15:53:54;6.30;;;1.30;;
22336;SDS011;14992;50.844;4.418;2023-03-13T15:56:33;4.43;;;1.60;;
22336;SDS011;14992;50.844;4.418;2023-03-13T15:59:09;6.53;;;1.70;;
22336;SDS011;14992;50.844;4.418;2023-03-13T16:01:39;5.20;;;1.42;;
22336;SDS011;14992;50.844;4.418;2023-03-13T16:04:09;3.47;;;1.45;;
22336;SDS011;14992;50.844;4.418;2023-03-13T16:06:38;3.72;;;1.40;;